sensor_id;sensor_type;location;lat;lon;timestamp;P1;durP1;ratioP1;P2;durP2;ratioP2
51288;SDS011;37372;52.294;5.152;2022-08-11T00:00:55;6.10;;;3.20;;
51288;SDS011;37372;52.294;5.152;2022-08-11T00:03:21;6.10;;;3.08;;
51288;SDS011;37372;52.294;5.152;2022-08-11T00:05:52;5.22;;;3.30;;
51288;SDS011;37372;52.294;5.152;2022-08-11T00:08:23;6.63;;;3.42;;
51288;SDS011;37372;52.294;5.152;2022-08-11T00:10:52;5.95;;;3.33;;
51288;SDS011;37372;52.294;5.152;2022-08-11T00:13:20;5.45;;;3.53;;
51288;SDS011;37372;52.294;5.152;2022-08-11T00:15:47;6.15;;;3.60;;
51288;SDS011;37372;52.294;5.152;2022-08-11T00:18:13;4.60;;;3.03;;
51288;SDS011;37372;52.294;5.152;2022-08-11T00:20:41;5.55;;;3.55;;
51288;SDS011;37372;52.294;5.152;2022-08-11T00:23:09;4.85;;;3.17;;
51288;SDS011;37372;52.294;5.152;2022-08-11T00:25:38;4.05;;;2.80;;
51288;SDS011;37372;52.294;5.152;2022-08-11T00:28:23;6.68;;;3.42;;
51288;SDS011;37372;52.294;5.152;2022-08-11T00:30:49;7.38;;;3.83;;
51288;SDS011;37372;52.294;5.152;2022-08-11T00:33:17;6.13;;;3.25;;
51288;SDS011;37372;52.294;5.152;2022-08-11T00:35:46;5.70;;;3.03;;
51288;SDS011;37372;52.294;5.152;2022-08-11T00:38:13;5.60;;;3.17;;
51288;SDS011;37372;52.294;5.152;2022-08-11T00:40:52;6.53;;;3.05;;
51288;SDS011;37372;52.294;5.152;2022-08-11T00:43:31;5.88;;;3.20;;
51288;SDS011;37372;52.294;5.152;2022-08-11T00:46:34;5.30;;;3.40;;
51288;SDS011;37372;52.294;5.152;2022-08-11T00:51:55;6.22;;;4.18;;
51288;SDS011;37372;52.294;5.152;2022-08-11T01:00:23;5.03;;;3.30;;
51288;SDS011;37372;52.294;5.152;2022-08-11T01:19:08;6.32;;;3.38;;
51288;SDS011;37372;52.294;5.152;2022-08-11T01:25:17;5.18;;;3.03;;
51288;SDS011;37372;52.294;5.152;2022-08-11T01:30:46;5.97;;;3.45;;
51288;SDS011;37372;52.294;5.152;2022-08-11T01:36:47;5.03;;;3.38;;
51288;SDS011;37372;52.294;5.152;2022-08-11T01:39:28;6.20;;;3.25;;
51288;SDS011;37372;52.294;5.152;2022-08-11T01:42:16;6.47;;;3.15;;
51288;SDS011;37372;52.294;5.152;2022-08-11T01:50:36;7.45;;;3.88;;
51288;SDS011;37372;52.294;5.152;2022-08-11T01:53:27;5.65;;;3.90;;
51288;SDS011;37372;52.294;5.152;2022-08-11T01:56:04;6.97;;;4.53;;
51288;SDS011;37372;52.294;5.152;2022-08-11T02:01:51;6.60;;;4.07;;
51288;SDS011;37372;52.294;5.152;2022-08-11T02:04:28;7.78;;;4.30;;
51288;SDS011;37372;52.294;5.152;2022-08-11T02:07:09;5.22;;;3.50;;
51288;SDS011;37372;52.294;5.152;2022-08-11T02:15:12;5.20;;;3.78;;
51288;SDS011;37372;52.294;5.152;2022-08-11T02:17:59;5.45;;;3.42;;
51288;SDS011;37372;52.294;5.152;2022-08-11T02:20:53;6.22;;;3.30;;
51288;SDS011;37372;52.294;5.152;2022-08-11T02:26:19;4.82;;;3.58;;
51288;SDS011;37372;52.294;5.152;2022-08-11T02:29:10;7.03;;;3.78;;
51288;SDS011;37372;52.294;5.152;2022-08-11T02:31:44;5.38;;;3.70;;
51288;SDS011;37372;52.294;5.152;2022-08-11T02:40:09;6.68;;;3.90;;
51288;SDS011;37372;52.294;5.152;2022-08-11T02:42:41;8.90;;;3.70;;
51288;SDS011;37372;52.294;5.152;2022-08-11T02:56:53;6.78;;;3.80;;
51288;SDS011;37372;52.294;5.152;2022-08-11T03:05:17;17.60;;;4.65;;
51288;SDS011;37372;52.294;5.152;2022-08-11T03:08:06;6.72;;;3.85;;
51288;SDS011;37372;52.294;5.152;2022-08-11T03:16:55;9.75;;;3.90;;
51288;SDS011;37372;52.294;5.152;2022-08-11T03:22:24;5.15;;;3.38;;
51288;SDS011;37372;52.294;5.152;2022-08-11T03:25:07;7.22;;;3.60;;
51288;SDS011;37372;52.294;5.152;2022-08-11T03:27:45;5.55;;;3.83;;
51288;SDS011;37372;52.294;5.152;2022-08-11T03:30:21;6.55;;;4.28;;
51288;SDS011;37372;52.294;5.152;2022-08-11T03:33:04;9.20;;;3.88;;
51288;SDS011;37372;52.294;5.152;2022-08-11T03:35:53;9.43;;;3.58;;
51288;SDS011;37372;52.294;5.152;2022-08-11T03:38:25;5.18;;;3.40;;
51288;SDS011;37372;52.294;5.152;2022-08-11T03:55:38;6.50;;;3.95;;
51288;SDS011;37372;52.294;5.152;2022-08-11T04:01:25;6.15;;;4.22;;
51288;SDS011;37372;52.294;5.152;2022-08-11T04:21:48;5.50;;;3.90;;
51288;SDS011;37372;52.294;5.152;2022-08-11T04:27:26;8.10;;;4.10;;
51288;SDS011;37372;52.294;5.152;2022-08-11T04:30:10;8.13;;;4.15;;
51288;SDS011;37372;52.294;5.152;2022-08-11T04:32:56;6.75;;;3.95;;
51288;SDS011;37372;52.294;5.152;2022-08-11T04:44:06;7.13;;;4.72;;
51288;SDS011;37372;52.294;5.152;2022-08-11T05:13:06;6.20;;;4.22;;
51288;SDS011;37372;52.294;5.152;2022-08-11T05:16:01;7.50;;;4.63;;
51288;SDS011;37372;52.294;5.152;2022-08-11T05:18:53;5.88;;;3.90;;
51288;SDS011;37372;52.294;5.152;2022-08-11T05:21:39;8.75;;;5.28;;
51288;SDS011;37372;52.294;5.152;2022-08-11T05:24:28;10.73;;;4.82;;
51288;SDS011;37372;52.294;5.152;2022-08-11T05:27:37;6.47;;;3.63;;
51288;SDS011;37372;52.294;5.152;2022-08-11T05:30:34;10.10;;;4.47;;
51288;SDS011;37372;52.294;5.152;2022-08-11T05:33:34;9.85;;;5.60;;
51288;SDS011;37372;52.294;5.152;2022-08-11T05:36:29;7.25;;;4.78;;
51288;SDS011;37372;52.294;5.152;2022-08-11T05:39:10;6.95;;;4.88;;
51288;SDS011;37372;52.294;5.152;2022-08-11T05:41:58;7.85;;;5.00;;
51288;SDS011;37372;52.294;5.152;2022-08-11T05:47:31;5.88;;;3.92;;
51288;SDS011;37372;52.294;5.152;2022-08-11T05:50:17;9.23;;;4.80;;
51288;SDS011;37372;52.294;5.152;2022-08-11T05:53:03;14.50;;;4.82;;
51288;SDS011;37372;52.294;5.152;2022-08-11T05:55:52;8.27;;;5.03;;
51288;SDS011;37372;52.294;5.152;2022-08-11T05:58:41;6.60;;;4.25;;
51288;SDS011;37372;52.294;5.152;2022-08-11T06:01:09;8.25;;;4.47;;
51288;SDS011;37372;52.294;5.152;2022-08-11T06:03:36;5.57;;;3.78;;
51288;SDS011;37372;52.294;5.152;2022-08-11T06:06:24;6.00;;;3.67;;
51288;SDS011;37372;52.294;5.152;2022-08-11T06:08:54;4.35;;;2.88;;
51288;SDS011;37372;52.294;5.152;2022-08-11T06:11:20;5.25;;;3.53;;
51288;SDS011;37372;52.294;5.152;2022-08-11T06:13:48;10.65;;;3.65;;
51288;SDS011;37372;52.294;5.152;2022-08-11T06:16:14;6.63;;;3.60;;
51288;SDS011;37372;52.294;5.152;2022-08-11T06:18:47;8.20;;;3.40;;
51288;SDS011;37372;52.294;5.152;2022-08-11T06:21:13;9.65;;;3.30;;
51288;SDS011;37372;52.294;5.152;2022-08-11T06:23:41;8.48;;;3.22;;
51288;SDS011;37372;52.294;5.152;2022-08-11T06:26:07;5.68;;;3.08;;
51288;SDS011;37372;52.294;5.152;2022-08-11T06:28:35;8.00;;;3.00;;
51288;SDS011;37372;52.294;5.152;2022-08-11T06:31:10;9.30;;;3.53;;
51288;SDS011;37372;52.294;5.152;2022-08-11T06:33:37;5.60;;;3.22;;
51288;SDS011;37372;52.294;5.152;2022-08-11T06:36:45;6.70;;;3.28;;
51288;SDS011;37372;52.294;5.152;2022-08-11T06:42:10;8.52;;;3.28;;
51288;SDS011;37372;52.294;5.152;2022-08-11T06:44:41;4.18;;;2.72;;
51288;SDS011;37372;52.294;5.152;2022-08-11T06:47:11;6.97;;;2.72;;
51288;SDS011;37372;52.294;5.152;2022-08-11T06:49:46;8.00;;;3.30;;
51288;SDS011;37372;52.294;5.152;2022-08-11T06:52:32;4.30;;;2.72;;
51288;SDS011;37372;52.294;5.152;2022-08-11T06:55:04;3.70;;;2.30;;
51288;SDS011;37372;52.294;5.152;2022-08-11T06:57:33;4.30;;;2.67;;
51288;SDS011;37372;52.294;5.152;2022-08-11T07:00:19;4.93;;;2.58;;
51288;SDS011;37372;52.294;5.152;2022-08-11T07:03:02;7.68;;;2.25;;
51288;SDS011;37372;52.294;5.152;2022-08-11T07:11:18;9.45;;;2.55;;
51288;SDS011;37372;52.294;5.152;2022-08-11T07:14:18;7.03;;;2.80;;
51288;SDS011;37372;52.294;5.152;2022-08-11T07:17:10;8.60;;;3.03;;
51288;SDS011;37372;52.294;5.152;2022-08-11T07:19:39;5.30;;;2.50;;
51288;SDS011;37372;52.294;5.152;2022-08-11T07:22:30;10.25;;;2.67;;
51288;SDS011;37372;52.294;5.152;2022-08-11T07:25:15;4.50;;;2.97;;
51288;SDS011;37372;52.294;5.152;2022-08-11T07:28:01;4.30;;;2.45;;
51288;SDS011;37372;52.294;5.152;2022-08-11T07:30:48;7.35;;;2.90;;
51288;SDS011;37372;52.294;5.152;2022-08-11T07:33:18;6.30;;;2.70;;
51288;SDS011;37372;52.294;5.152;2022-08-11T07:35:51;5.68;;;2.60;;
51288;SDS011;37372;52.294;5.152;2022-08-11T07:38:21;4.88;;;2.97;;
51288;SDS011;37372;52.294;5.152;2022-08-11T07:41:07;7.72;;;2.80;;
51288;SDS011;37372;52.294;5.152;2022-08-11T07:43:37;6.22;;;2.50;;
51288;SDS011;37372;52.294;5.152;2022-08-11T07:46:04;5.30;;;2.30;;
51288;SDS011;37372;52.294;5.152;2022-08-11T07:48:49;2.92;;;2.10;;
51288;SDS011;37372;52.294;5.152;2022-08-11T07:51:35;4.35;;;2.40;;
51288;SDS011;37372;52.294;5.152;2022-08-11T07:54:20;4.82;;;2.63;;
51288;SDS011;37372;52.294;5.152;2022-08-11T07:56:46;4.13;;;2.47;;
51288;SDS011;37372;52.294;5.152;2022-08-11T07:59:12;3.70;;;2.40;;
51288;SDS011;37372;52.294;5.152;2022-08-11T08:01:57;5.30;;;3.03;;
51288;SDS011;37372;52.294;5.152;2022-08-11T08:04:42;3.78;;;2.67;;
51288;SDS011;37372;52.294;5.152;2022-08-11T08:07:28;4.38;;;2.83;;
51288;SDS011;37372;52.294;5.152;2022-08-11T08:10:12;4.88;;;2.72;;
51288;SDS011;37372;52.294;5.152;2022-08-11T08:12:56;5.70;;;3.23;;
51288;SDS011;37372;52.294;5.152;2022-08-11T08:15:41;5.07;;;2.47;;
51288;SDS011;37372;52.294;5.152;2022-08-11T08:18:26;3.78;;;2.53;;
51288;SDS011;37372;52.294;5.152;2022-08-11T08:20:53;4.55;;;2.67;;
51288;SDS011;37372;52.294;5.152;2022-08-11T08:23:20;4.20;;;2.58;;
51288;SDS011;37372;52.294;5.152;2022-08-11T08:25:59;4.35;;;2.42;;
51288;SDS011;37372;52.294;5.152;2022-08-11T08:28:29;4.57;;;2.33;;
51288;SDS011;37372;52.294;5.152;2022-08-11T08:30:56;5.75;;;2.88;;
51288;SDS011;37372;52.294;5.152;2022-08-11T08:33:23;5.30;;;2.28;;
51288;SDS011;37372;52.294;5.152;2022-08-11T08:35:53;3.50;;;2.00;;
51288;SDS011;37372;52.294;5.152;2022-08-11T08:38:39;17.25;;;2.75;;
51288;SDS011;37372;52.294;5.152;2022-08-11T08:41:05;12.73;;;3.42;;
51288;SDS011;37372;52.294;5.152;2022-08-11T08:43:33;5.72;;;2.90;;
51288;SDS011;37372;52.294;5.152;2022-08-11T08:46:01;4.65;;;2.22;;
51288;SDS011;37372;52.294;5.152;2022-08-11T08:48:31;4.72;;;2.20;;
51288;SDS011;37372;52.294;5.152;2022-08-11T08:51:03;4.00;;;2.13;;
51288;SDS011;37372;52.294;5.152;2022-08-11T08:53:52;3.90;;;2.20;;
51288;SDS011;37372;52.294;5.152;2022-08-11T08:56:19;5.25;;;2.47;;
51288;SDS011;37372;52.294;5.152;2022-08-11T08:58:52;2.97;;;2.03;;
51288;SDS011;37372;52.294;5.152;2022-08-11T09:01:19;6.05;;;1.88;;
51288;SDS011;37372;52.294;5.152;2022-08-11T09:03:46;17.67;;;2.63;;
51288;SDS011;37372;52.294;5.152;2022-08-11T09:06:12;8.80;;;2.58;;
51288;SDS011;37372;52.294;5.152;2022-08-11T09:08:41;5.97;;;2.33;;
51288;SDS011;37372;52.294;5.152;2022-08-11T09:11:08;5.75;;;2.30;;
51288;SDS011;37372;52.294;5.152;2022-08-11T09:13:53;4.43;;;1.98;;
51288;SDS011;37372;52.294;5.152;2022-08-11T09:16:19;6.18;;;1.90;;
51288;SDS011;37372;52.294;5.152;2022-08-11T09:18:48;4.22;;;1.80;;
51288;SDS011;37372;52.294;5.152;2022-08-11T09:21:15;2.33;;;1.58;;
51288;SDS011;37372;52.294;5.152;2022-08-11T09:23:47;3.72;;;2.25;;
51288;SDS011;37372;52.294;5.152;2022-08-11T09:26:34;5.88;;;2.75;;
51288;SDS011;37372;52.294;5.152;2022-08-11T09:29:23;5.95;;;2.30;;
51288;SDS011;37372;52.294;5.152;2022-08-11T09:31:51;9.98;;;2.70;;
51288;SDS011;37372;52.294;5.152;2022-08-11T09:34:17;3.90;;;2.47;;
51288;SDS011;37372;52.294;5.152;2022-08-11T09:36:43;6.40;;;2.70;;
51288;SDS011;37372;52.294;5.152;2022-08-11T09:39:29;21.38;;;3.80;;
51288;SDS011;37372;52.294;5.152;2022-08-11T09:42:14;6.65;;;2.97;;
51288;SDS011;37372;52.294;5.152;2022-08-11T09:44:40;7.03;;;2.58;;
51288;SDS011;37372;52.294;5.152;2022-08-11T09:47:22;6.20;;;2.45;;
51288;SDS011;37372;52.294;5.152;2022-08-11T09:49:51;7.28;;;3.05;;
51288;SDS011;37372;52.294;5.152;2022-08-11T09:52:20;4.97;;;2.40;;
51288;SDS011;37372;52.294;5.152;2022-08-11T09:54:47;26.20;;;3.80;;
51288;SDS011;37372;52.294;5.152;2022-08-11T09:57:17;29.58;;;4.57;;
51288;SDS011;37372;52.294;5.152;2022-08-11T10:00:03;21.63;;;3.28;;
51288;SDS011;37372;52.294;5.152;2022-08-11T10:02:29;11.95;;;2.40;;
51288;SDS011;37372;52.294;5.152;2022-08-11T10:04:56;5.47;;;2.58;;
51288;SDS011;37372;52.294;5.152;2022-08-11T10:07:43;3.85;;;2.00;;
51288;SDS011;37372;52.294;5.152;2022-08-11T10:10:14;3.58;;;2.38;;
51288;SDS011;37372;52.294;5.152;2022-08-11T10:12:47;2.97;;;1.90;;
51288;SDS011;37372;52.294;5.152;2022-08-11T10:15:20;3.30;;;1.98;;
51288;SDS011;37372;52.294;5.152;2022-08-11T10:18:08;4.45;;;2.17;;
51288;SDS011;37372;52.294;5.152;2022-08-11T10:21:21;12.85;;;2.22;;
51288;SDS011;37372;52.294;5.152;2022-08-11T10:23:48;17.00;;;3.80;;
51288;SDS011;37372;52.294;5.152;2022-08-11T10:26:35;7.30;;;2.15;;
51288;SDS011;37372;52.294;5.152;2022-08-11T10:29:31;6.97;;;2.08;;
51288;SDS011;37372;52.294;5.152;2022-08-11T10:32:21;4.57;;;1.88;;
51288;SDS011;37372;52.294;5.152;2022-08-11T10:35:07;2.92;;;1.83;;
51288;SDS011;37372;52.294;5.152;2022-08-11T10:37:36;3.70;;;1.90;;
51288;SDS011;37372;52.294;5.152;2022-08-11T10:40:06;3.97;;;2.08;;
51288;SDS011;37372;52.294;5.152;2022-08-11T10:42:34;4.00;;;1.95;;
51288;SDS011;37372;52.294;5.152;2022-08-11T10:45:20;4.10;;;2.60;;
51288;SDS011;37372;52.294;5.152;2022-08-11T10:48:05;6.18;;;2.40;;
51288;SDS011;37372;52.294;5.152;2022-08-11T10:50:31;3.10;;;2.05;;
51288;SDS011;37372;52.294;5.152;2022-08-11T10:53:17;10.82;;;2.55;;
51288;SDS011;37372;52.294;5.152;2022-08-11T10:56:02;12.10;;;2.50;;
51288;SDS011;37372;52.294;5.152;2022-08-11T10:58:47;6.85;;;2.38;;
51288;SDS011;37372;52.294;5.152;2022-08-11T11:01:19;4.63;;;2.42;;
51288;SDS011;37372;52.294;5.152;2022-08-11T11:03:48;4.70;;;2.47;;
51288;SDS011;37372;52.294;5.152;2022-08-11T11:06:24;9.43;;;3.35;;
51288;SDS011;37372;52.294;5.152;2022-08-11T11:08:52;3.63;;;2.08;;
51288;SDS011;37372;52.294;5.152;2022-08-11T11:11:24;5.93;;;1.88;;
51288;SDS011;37372;52.294;5.152;2022-08-11T11:14:15;4.22;;;2.38;;
51288;SDS011;37372;52.294;5.152;2022-08-11T11:17:03;4.50;;;2.10;;
51288;SDS011;37372;52.294;5.152;2022-08-11T11:19:48;3.55;;;2.10;;
51288;SDS011;37372;52.294;5.152;2022-08-11T11:22:19;3.40;;;1.60;;
51288;SDS011;37372;52.294;5.152;2022-08-11T11:27:59;3.15;;;1.95;;
51288;SDS011;37372;52.294;5.152;2022-08-11T11:31:22;2.28;;;1.80;;
51288;SDS011;37372;52.294;5.152;2022-08-11T11:36:22;5.22;;;2.17;;
51288;SDS011;37372;52.294;5.152;2022-08-11T11:38:56;3.35;;;1.83;;
51288;SDS011;37372;52.294;5.152;2022-08-11T11:41:22;8.50;;;2.72;;
51288;SDS011;37372;52.294;5.152;2022-08-11T11:43:50;3.28;;;1.92;;
51288;SDS011;37372;52.294;5.152;2022-08-11T11:46:20;7.22;;;2.10;;
51288;SDS011;37372;52.294;5.152;2022-08-11T11:48:46;5.07;;;2.00;;
51288;SDS011;37372;52.294;5.152;2022-08-11T11:51:12;6.80;;;1.90;;
51288;SDS011;37372;52.294;5.152;2022-08-11T11:53:40;6.18;;;2.20;;
51288;SDS011;37372;52.294;5.152;2022-08-11T11:56:08;6.65;;;1.73;;
51288;SDS011;37372;52.294;5.152;2022-08-11T11:58:34;5.25;;;1.80;;
51288;SDS011;37372;52.294;5.152;2022-08-11T12:01:20;5.13;;;1.95;;
51288;SDS011;37372;52.294;5.152;2022-08-11T12:03:49;3.08;;;1.95;;
51288;SDS011;37372;52.294;5.152;2022-08-11T12:06:17;3.17;;;1.40;;
51288;SDS011;37372;52.294;5.152;2022-08-11T12:08:46;3.40;;;1.70;;
51288;SDS011;37372;52.294;5.152;2022-08-11T12:11:13;3.50;;;2.17;;
51288;SDS011;37372;52.294;5.152;2022-08-11T12:14:02;4.72;;;2.03;;
51288;SDS011;37372;52.294;5.152;2022-08-11T12:16:29;12.05;;;1.92;;
51288;SDS011;37372;52.294;5.152;2022-08-11T12:18:58;7.88;;;2.40;;
51288;SDS011;37372;52.294;5.152;2022-08-11T12:21:25;3.83;;;1.85;;
51288;SDS011;37372;52.294;5.152;2022-08-11T12:23:52;4.65;;;1.98;;
51288;SDS011;37372;52.294;5.152;2022-08-11T12:26:38;4.40;;;1.77;;
51288;SDS011;37372;52.294;5.152;2022-08-11T12:29:13;5.30;;;1.80;;
51288;SDS011;37372;52.294;5.152;2022-08-11T12:31:41;6.65;;;1.63;;
51288;SDS011;37372;52.294;5.152;2022-08-11T12:34:11;3.47;;;1.73;;
51288;SDS011;37372;52.294;5.152;2022-08-11T12:36:42;6.65;;;1.80;;
51288;SDS011;37372;52.294;5.152;2022-08-11T12:39:31;12.52;;;2.53;;
51288;SDS011;37372;52.294;5.152;2022-08-11T12:42:19;9.02;;;2.00;;
51288;SDS011;37372;52.294;5.152;2022-08-11T12:45:08;3.45;;;1.67;;
51288;SDS011;37372;52.294;5.152;2022-08-11T12:47:53;3.17;;;1.60;;
51288;SDS011;37372;52.294;5.152;2022-08-11T12:50:43;8.23;;;2.03;;
51288;SDS011;37372;52.294;5.152;2022-08-11T12:53:32;5.07;;;1.70;;
51288;SDS011;37372;52.294;5.152;2022-08-11T12:56:02;5.22;;;1.60;;
51288;SDS011;37372;52.294;5.152;2022-08-11T12:58:48;4.05;;;1.58;;
51288;SDS011;37372;52.294;5.152;2022-08-11T13:01:16;2.65;;;1.60;;
51288;SDS011;37372;52.294;5.152;2022-08-11T13:04:00;5.60;;;1.80;;
51288;SDS011;37372;52.294;5.152;2022-08-11T13:06:45;3.35;;;1.50;;
51288;SDS011;37372;52.294;5.152;2022-08-11T13:09:11;4.20;;;1.95;;
51288;SDS011;37372;52.294;5.152;2022-08-11T13:11:37;6.85;;;1.85;;
51288;SDS011;37372;52.294;5.152;2022-08-11T13:14:22;4.15;;;1.70;;
51288;SDS011;37372;52.294;5.152;2022-08-11T13:16:49;3.25;;;1.50;;
51288;SDS011;37372;52.294;5.152;2022-08-11T13:19:34;6.18;;;1.52;;
51288;SDS011;37372;52.294;5.152;2022-08-11T13:22:00;4.15;;;1.83;;
51288;SDS011;37372;52.294;5.152;2022-08-11T13:24:26;6.82;;;1.77;;
51288;SDS011;37372;52.294;5.152;2022-08-11T13:26:53;2.13;;;1.33;;
51288;SDS011;37372;52.294;5.152;2022-08-11T13:29:19;5.95;;;1.85;;
51288;SDS011;37372;52.294;5.152;2022-08-11T13:31:48;4.97;;;1.95;;
51288;SDS011;37372;52.294;5.152;2022-08-11T13:34:15;3.08;;;1.20;;
51288;SDS011;37372;52.294;5.152;2022-08-11T13:36:42;3.92;;;1.33;;
51288;SDS011;37372;52.294;5.152;2022-08-11T13:39:08;2.75;;;1.40;;
51288;SDS011;37372;52.294;5.152;2022-08-11T13:41:34;2.55;;;1.30;;
51288;SDS011;37372;52.294;5.152;2022-08-11T13:44:06;2.45;;;1.42;;
51288;SDS011;37372;52.294;5.152;2022-08-11T13:46:34;2.30;;;1.38;;
51288;SDS011;37372;52.294;5.152;2022-08-11T13:49:00;3.40;;;1.48;;
51288;SDS011;37372;52.294;5.152;2022-08-11T13:51:26;6.03;;;1.75;;
51288;SDS011;37372;52.294;5.152;2022-08-11T13:53:58;3.25;;;1.42;;
51288;SDS011;37372;52.294;5.152;2022-08-11T13:56:26;2.78;;;1.13;;
51288;SDS011;37372;52.294;5.152;2022-08-11T13:58:53;4.68;;;1.50;;
51288;SDS011;37372;52.294;5.152;2022-08-11T14:01:20;4.28;;;1.50;;
51288;SDS011;37372;52.294;5.152;2022-08-11T14:03:48;3.95;;;1.38;;
51288;SDS011;37372;52.294;5.152;2022-08-11T14:06:15;4.03;;;1.52;;
51288;SDS011;37372;52.294;5.152;2022-08-11T14:08:43;2.15;;;1.20;;
51288;SDS011;37372;52.294;5.152;2022-08-11T14:11:10;4.75;;;1.58;;
51288;SDS011;37372;52.294;5.152;2022-08-11T14:13:55;4.10;;;1.38;;
51288;SDS011;37372;52.294;5.152;2022-08-11T14:16:26;8.85;;;1.90;;
51288;SDS011;37372;52.294;5.152;2022-08-11T14:18:56;10.30;;;2.10;;
51288;SDS011;37372;52.294;5.152;2022-08-11T14:21:25;5.93;;;2.03;;
51288;SDS011;37372;52.294;5.152;2022-08-11T14:24:11;2.28;;;1.00;;
51288;SDS011;37372;52.294;5.152;2022-08-11T14:26:37;3.15;;;1.27;;
51288;SDS011;37372;52.294;5.152;2022-08-11T14:29:08;4.40;;;1.52;;
51288;SDS011;37372;52.294;5.152;2022-08-11T14:31:47;6.32;;;1.70;;
51288;SDS011;37372;52.294;5.152;2022-08-11T14:34:17;5.53;;;1.45;;
51288;SDS011;37372;52.294;5.152;2022-08-11T14:36:46;10.52;;;1.80;;
51288;SDS011;37372;52.294;5.152;2022-08-11T14:39:16;7.72;;;1.35;;
51288;SDS011;37372;52.294;5.152;2022-08-11T14:41:46;4.03;;;1.50;;
51288;SDS011;37372;52.294;5.152;2022-08-11T14:44:36;4.10;;;1.60;;
51288;SDS011;37372;52.294;5.152;2022-08-11T14:47:22;2.28;;;1.17;;
51288;SDS011;37372;52.294;5.152;2022-08-11T14:49:49;22.55;;;3.00;;
51288;SDS011;37372;52.294;5.152;2022-08-11T14:52:17;4.47;;;1.42;;
51288;SDS011;37372;52.294;5.152;2022-08-11T14:54:45;17.80;;;2.53;;
51288;SDS011;37372;52.294;5.152;2022-08-11T14:57:32;20.33;;;3.22;;
51288;SDS011;37372;52.294;5.152;2022-08-11T15:00:00;6.07;;;1.58;;
51288;SDS011;37372;52.294;5.152;2022-08-11T15:02:28;3.65;;;1.52;;
51288;SDS011;37372;52.294;5.152;2022-08-11T15:05:13;6.72;;;1.27;;
51288;SDS011;37372;52.294;5.152;2022-08-11T15:07:39;4.00;;;1.80;;
51288;SDS011;37372;52.294;5.152;2022-08-11T15:10:06;14.45;;;2.10;;
51288;SDS011;37372;52.294;5.152;2022-08-11T15:12:34;9.40;;;2.05;;
51288;SDS011;37372;52.294;5.152;2022-08-11T15:15:01;15.73;;;2.13;;
51288;SDS011;37372;52.294;5.152;2022-08-11T15:17:47;46.08;;;3.67;;
51288;SDS011;37372;52.294;5.152;2022-08-11T15:20:16;11.43;;;1.80;;
51288;SDS011;37372;52.294;5.152;2022-08-11T15:23:01;6.97;;;1.83;;
51288;SDS011;37372;52.294;5.152;2022-08-11T15:25:50;3.15;;;1.30;;
51288;SDS011;37372;52.294;5.152;2022-08-11T15:28:19;5.07;;;1.40;;
51288;SDS011;37372;52.294;5.152;2022-08-11T15:31:06;4.53;;;1.63;;
51288;SDS011;37372;52.294;5.152;2022-08-11T15:34:07;3.83;;;1.30;;
51288;SDS011;37372;52.294;5.152;2022-08-11T15:36:57;3.50;;;1.50;;
51288;SDS011;37372;52.294;5.152;2022-08-11T15:40:00;3.15;;;1.25;;
51288;SDS011;37372;52.294;5.152;2022-08-11T15:46:02;2.80;;;1.13;;
51288;SDS011;37372;52.294;5.152;2022-08-11T15:51:01;5.93;;;1.30;;
51288;SDS011;37372;52.294;5.152;2022-08-11T15:53:41;3.50;;;1.23;;
51288;SDS011;37372;52.294;5.152;2022-08-11T15:56:10;2.75;;;1.17;;
51288;SDS011;37372;52.294;5.152;2022-08-11T15:58:41;2.10;;;1.15;;
51288;SDS011;37372;52.294;5.152;2022-08-11T16:01:29;4.80;;;1.80;;
51288;SDS011;37372;52.294;5.152;2022-08-11T16:04:15;2.30;;;1.20;;
51288;SDS011;37372;52.294;5.152;2022-08-11T16:06:44;2.40;;;1.40;;
51288;SDS011;37372;52.294;5.152;2022-08-11T16:09:14;3.63;;;1.30;;
51288;SDS011;37372;52.294;5.152;2022-08-11T16:11:43;2.78;;;1.08;;
51288;SDS011;37372;52.294;5.152;2022-08-11T16:14:10;5.88;;;1.48;;
51288;SDS011;37372;52.294;5.152;2022-08-11T16:16:56;3.08;;;1.45;;
51288;SDS011;37372;52.294;5.152;2022-08-11T16:19:24;4.28;;;1.55;;
51288;SDS011;37372;52.294;5.152;2022-08-11T16:21:56;3.28;;;1.13;;
51288;SDS011;37372;52.294;5.152;2022-08-11T16:24:21;2.17;;;1.13;;
51288;SDS011;37372;52.294;5.152;2022-08-11T16:26:49;6.30;;;1.20;;
51288;SDS011;37372;52.294;5.152;2022-08-11T16:29:16;5.95;;;1.35;;
51288;SDS011;37372;52.294;5.152;2022-08-11T16:31:43;3.25;;;1.00;;
51288;SDS011;37372;52.294;5.152;2022-08-11T16:34:30;2.65;;;1.30;;
51288;SDS011;37372;52.294;5.152;2022-08-11T16:37:16;1.90;;;1.13;;
51288;SDS011;37372;52.294;5.152;2022-08-11T16:40:01;1.42;;;1.00;;
51288;SDS011;37372;52.294;5.152;2022-08-11T16:42:28;3.30;;;1.27;;
51288;SDS011;37372;52.294;5.152;2022-08-11T16:45:12;4.47;;;1.10;;
51288;SDS011;37372;52.294;5.152;2022-08-11T16:47:56;3.28;;;1.10;;
51288;SDS011;37372;52.294;5.152;2022-08-11T16:50:22;4.07;;;1.60;;
51288;SDS011;37372;52.294;5.152;2022-08-11T16:52:47;5.85;;;1.58;;
51288;SDS011;37372;52.294;5.152;2022-08-11T16:55:13;3.25;;;1.30;;
51288;SDS011;37372;52.294;5.152;2022-08-11T16:57:39;6.57;;;1.95;;
51288;SDS011;37372;52.294;5.152;2022-08-11T17:00:24;2.95;;;1.30;;
51288;SDS011;37372;52.294;5.152;2022-08-11T17:02:52;5.03;;;1.40;;
51288;SDS011;37372;52.294;5.152;2022-08-11T17:05:40;4.43;;;1.40;;
51288;SDS011;37372;52.294;5.152;2022-08-11T17:08:34;3.90;;;1.42;;
51288;SDS011;37372;52.294;5.152;2022-08-11T17:11:21;4.60;;;1.35;;
51288;SDS011;37372;52.294;5.152;2022-08-11T17:14:13;3.40;;;1.25;;
51288;SDS011;37372;52.294;5.152;2022-08-11T17:16:42;6.55;;;1.40;;
51288;SDS011;37372;52.294;5.152;2022-08-11T17:19:16;2.22;;;1.40;;
51288;SDS011;37372;52.294;5.152;2022-08-11T17:21:46;2.95;;;1.00;;
51288;SDS011;37372;52.294;5.152;2022-08-11T17:24:36;1.98;;;1.08;;
51288;SDS011;37372;52.294;5.152;2022-08-11T17:27:07;2.03;;;1.27;;
51288;SDS011;37372;52.294;5.152;2022-08-11T17:29:37;2.90;;;1.50;;
51288;SDS011;37372;52.294;5.152;2022-08-11T17:32:11;3.25;;;1.10;;
51288;SDS011;37372;52.294;5.152;2022-08-11T17:34:58;4.72;;;1.98;;
51288;SDS011;37372;52.294;5.152;2022-08-11T17:37:46;2.97;;;1.85;;
51288;SDS011;37372;52.294;5.152;2022-08-11T17:40:16;3.00;;;1.27;;
51288;SDS011;37372;52.294;5.152;2022-08-11T17:42:52;2.95;;;1.38;;
51288;SDS011;37372;52.294;5.152;2022-08-11T17:45:38;3.22;;;1.48;;
51288;SDS011;37372;52.294;5.152;2022-08-11T17:48:25;2.58;;;1.23;;
51288;SDS011;37372;52.294;5.152;2022-08-11T17:50:53;1.85;;;1.23;;
51288;SDS011;37372;52.294;5.152;2022-08-11T17:53:19;6.05;;;2.85;;
51288;SDS011;37372;52.294;5.152;2022-08-11T17:56:05;5.00;;;2.22;;
51288;SDS011;37372;52.294;5.152;2022-08-11T17:58:51;2.83;;;1.70;;
51288;SDS011;37372;52.294;5.152;2022-08-11T18:01:37;4.15;;;1.80;;
51288;SDS011;37372;52.294;5.152;2022-08-11T18:04:05;2.58;;;1.73;;
51288;SDS011;37372;52.294;5.152;2022-08-11T18:06:33;3.35;;;1.52;;
51288;SDS011;37372;52.294;5.152;2022-08-11T18:09:01;4.13;;;1.52;;
51288;SDS011;37372;52.294;5.152;2022-08-11T18:11:47;5.63;;;1.65;;
51288;SDS011;37372;52.294;5.152;2022-08-11T18:14:33;6.60;;;2.30;;
51288;SDS011;37372;52.294;5.152;2022-08-11T18:17:19;2.95;;;1.48;;
51288;SDS011;37372;52.294;5.152;2022-08-11T18:20:04;5.45;;;1.77;;
51288;SDS011;37372;52.294;5.152;2022-08-11T18:22:49;4.53;;;2.65;;
51288;SDS011;37372;52.294;5.152;2022-08-11T18:25:38;3.10;;;1.52;;
51288;SDS011;37372;52.294;5.152;2022-08-11T18:28:28;2.80;;;1.30;;
51288;SDS011;37372;52.294;5.152;2022-08-11T18:31:16;7.03;;;1.70;;
51288;SDS011;37372;52.294;5.152;2022-08-11T18:34:06;4.03;;;1.77;;
51288;SDS011;37372;52.294;5.152;2022-08-11T18:39:46;4.75;;;1.50;;
51288;SDS011;37372;52.294;5.152;2022-08-11T18:42:36;5.85;;;1.83;;
51288;SDS011;37372;52.294;5.152;2022-08-11T18:45:23;4.30;;;1.90;;